createdAt,value
2022-09-28T00:01:17.711Z,8.88
2022-09-28T00:04:06.206Z,8.73
2022-09-28T00:06:53.609Z,8.63
2022-09-28T00:09:40.994Z,8.46
2022-09-28T00:12:29.819Z,8.40
2022-09-28T00:15:17.799Z,8.39
2022-09-28T00:18:06.794Z,8.63
2022-09-28T00:21:01.684Z,8.52
2022-09-28T00:24:05.985Z,8.44
2022-09-28T00:26:54.961Z,8.31
2022-09-28T00:29:42.396Z,8.27
2022-09-28T00:32:29.977Z,8.30
2022-09-28T00:35:18.768Z,8.38
2022-09-28T00:38:09.276Z,8.41
2022-09-28T00:40:57.078Z,8.35
2022-09-28T00:43:44.849Z,8.47
2022-09-28T00:46:35.366Z,8.70
2022-09-28T00:49:33.930Z,8.61
2022-09-28T00:52:27.662Z,8.75
2022-09-28T00:55:18.099Z,8.48
2022-09-28T00:58:09.165Z,8.32
2022-09-28T01:00:58.268Z,8.09
2022-09-28T01:03:48.632Z,8.15
2022-09-28T01:06:38.237Z,8.30
2022-09-28T01:09:28.857Z,8.33
2022-09-28T01:12:16.410Z,8.27
2022-09-28T01:15:05.519Z,8.33
2022-09-28T01:18:05.403Z,8.12
2022-09-28T01:21:02.697Z,7.87
2022-09-28T01:24:18.035Z,8.10
2022-09-28T01:27:14.795Z,8.23
2022-09-28T01:30:07.391Z,8.22
2022-09-28T01:33:04.139Z,8.15
2022-09-28T01:35:56.987Z,8.19
2022-09-28T01:38:49.705Z,7.90
2022-09-28T01:41:41.227Z,8.14
2022-09-28T01:44:33.917Z,8.07
2022-09-28T01:47:23.940Z,8.22
2022-09-28T01:50:14.689Z,8.32
2022-09-28T01:53:10.689Z,8.09
2022-09-28T01:56:03.518Z,8.05
2022-09-28T01:58:54.925Z,7.93
2022-09-28T02:01:51.110Z,8.05
2022-09-28T02:04:44.059Z,7.76
2022-09-28T02:07:38.649Z,7.75
2022-09-28T02:10:31.623Z,7.67
2022-09-28T02:13:24.845Z,7.78
2022-09-28T02:16:17.411Z,8.05
2022-09-28T02:19:07.927Z,8.25
2022-09-28T02:22:03.229Z,8.27
2022-09-28T02:24:56.797Z,8.03
2022-09-28T02:27:55.257Z,8.10
2022-09-28T02:30:45.865Z,8.19
2022-09-28T02:33:38.677Z,8.25
2022-09-28T02:36:29.597Z,8.31
2022-09-28T02:39:19.225Z,8.38
2022-09-28T02:42:17.399Z,8.13
2022-09-28T02:45:17.052Z,8.22
2022-09-28T02:48:14.456Z,8.04
2022-09-28T02:51:08.588Z,7.96
2022-09-28T02:54:22.670Z,7.93
2022-09-28T02:57:16.977Z,7.85
2022-09-28T03:00:09.376Z,7.74
2022-09-28T03:03:06.174Z,7.75
2022-09-28T03:06:01.895Z,7.74
2022-09-28T03:09:01.538Z,7.68
2022-09-28T03:11:58.094Z,7.77
2022-09-28T03:14:46.447Z,7.76
2022-09-28T03:17:33.594Z,7.75
2022-09-28T03:20:22.109Z,7.82
2022-09-28T03:23:24.239Z,7.90
2022-09-28T03:26:13.829Z,7.88
2022-09-28T03:29:02.516Z,7.89
2022-09-28T03:31:50.162Z,7.88
2022-09-28T03:34:37.661Z,7.90
2022-09-28T03:37:24.694Z,7.96
2022-09-28T03:40:11.927Z,7.98
2022-09-28T03:42:59.961Z,7.98
2022-09-28T03:45:54.905Z,7.93
2022-09-28T03:48:43.088Z,7.94
2022-09-28T03:51:31.281Z,7.87
2022-09-28T03:54:19.183Z,7.90
2022-09-28T03:57:06.872Z,7.89
2022-09-28T03:59:54.194Z,7.87
2022-09-28T04:02:43.063Z,7.91
2022-09-28T04:05:30.879Z,7.95
2022-09-28T04:08:18.800Z,7.96
2022-09-28T04:11:07.309Z,7.88
2022-09-28T04:13:55.224Z,7.88
2022-09-28T04:16:43.213Z,7.88
2022-09-28T04:19:35.494Z,7.92
2022-09-28T04:22:52.168Z,7.95
2022-09-28T04:25:39.826Z,7.95
2022-09-28T04:28:45.529Z,7.94
2022-09-28T04:31:39.061Z,7.93
2022-09-28T04:34:29.012Z,7.99
2022-09-28T04:37:20.973Z,7.99
2022-09-28T04:40:09.253Z,8.01
2022-09-28T04:42:57.852Z,8.02
2022-09-28T04:45:45.453Z,8.02
2022-09-28T04:48:33.384Z,8.00
2022-09-28T04:51:31.942Z,8.03
2022-09-28T04:54:21.225Z,8.06
2022-09-28T04:57:09.115Z,7.98
2022-09-28T04:59:57.824Z,8.01
2022-09-28T05:02:45.699Z,8.04
2022-09-28T05:05:52.170Z,7.96
2022-09-28T05:08:58.545Z,8.00
2022-09-28T05:11:47.179Z,7.93
2022-09-28T05:14:38.128Z,7.93
2022-09-28T05:17:26.364Z,7.94
2022-09-28T05:20:32.527Z,7.94
2022-09-28T05:23:19.795Z,8.01
2022-09-28T05:26:07.570Z,8.00
2022-09-28T05:28:58.140Z,7.99
2022-09-28T05:32:04.885Z,7.95
2022-09-28T05:35:18.465Z,7.98
2022-09-28T05:38:07.388Z,8.03
2022-09-28T05:40:54.997Z,8.00
2022-09-28T05:43:44.297Z,8.05
2022-09-28T05:46:32.728Z,8.03
2022-09-28T05:49:21.474Z,7.95
2022-09-28T05:52:08.686Z,7.97
2022-09-28T05:54:58.930Z,8.05
2022-09-28T05:57:46.830Z,7.91
2022-09-28T06:00:36.413Z,7.89
2022-09-28T06:03:25.987Z,7.89
2022-09-28T06:06:14.486Z,7.99
2022-09-28T06:09:03.324Z,8.01
2022-09-28T06:12:05.914Z,8.00
2022-09-28T06:15:06.472Z,7.95
2022-09-28T06:17:58.474Z,7.96
2022-09-28T06:21:06.084Z,7.91
2022-09-28T06:24:01.584Z,8.02
2022-09-28T06:26:49.447Z,8.11
2022-09-28T06:29:38.567Z,8.03
2022-09-28T06:32:25.967Z,7.97
2022-09-28T06:35:15.539Z,7.95
2022-09-28T06:38:04.822Z,8.10
2022-09-28T06:40:52.896Z,8.08
2022-09-28T06:43:40.350Z,8.10
2022-09-28T06:46:33.611Z,8.17
2022-09-28T06:49:41.204Z,8.26
2022-09-28T06:52:50.642Z,8.32
2022-09-28T06:55:51.730Z,8.42
2022-09-28T06:58:39.028Z,8.38
2022-09-28T07:01:28.532Z,8.47
2022-09-28T07:04:24.247Z,8.55
2022-09-28T07:07:31.477Z,8.61
2022-09-28T07:10:32.018Z,8.61
2022-09-28T07:13:51.347Z,8.51
2022-09-28T07:17:08.082Z,8.51
2022-09-28T07:19:52.810Z,8.59
2022-09-28T07:22:43.762Z,8.59
2022-09-28T07:25:41.042Z,8.57
2022-09-28T07:28:43.163Z,8.70
2022-09-28T07:31:56.055Z,8.85
2022-09-28T07:34:50.209Z,9.00
2022-09-28T07:37:47.894Z,9.09
2022-09-28T07:40:54.346Z,9.07
2022-09-28T07:43:42.790Z,9.09
2022-09-28T07:46:31.325Z,9.09
2022-09-28T07:49:24.789Z,9.13
2022-09-28T07:52:30.815Z,8.93
2022-09-28T07:55:38.731Z,8.97
2022-09-28T07:58:32.986Z,8.97
2022-09-28T08:01:40.533Z,9.04
2022-09-28T08:04:32.345Z,9.13
2022-09-28T08:07:23.624Z,9.18
2022-09-28T08:10:18.301Z,9.09
2022-09-28T08:13:27.408Z,9.15
2022-09-28T08:16:47.568Z,9.20
2022-09-28T08:20:13.067Z,9.30
2022-09-28T08:23:04.559Z,9.26
2022-09-28T08:25:54.237Z,9.17
2022-09-28T08:28:43.459Z,9.27
2022-09-28T08:32:02.023Z,9.37
2022-09-28T08:35:11.357Z,9.44
2022-09-28T08:38:16.479Z,9.56
2022-09-28T08:41:35.313Z,9.60
2022-09-28T08:48:25.118Z,9.69
2022-09-28T08:51:37.784Z,9.53
2022-09-28T08:54:39.022Z,9.49
2022-09-28T08:57:39.318Z,9.57
2022-09-28T09:00:34.678Z,9.52
2022-09-28T09:03:24.544Z,9.40
2022-09-28T09:06:51.680Z,9.45
2022-09-28T09:09:58.659Z,9.44
2022-09-28T09:12:57.429Z,9.46
2022-09-28T09:15:51.737Z,9.52
2022-09-28T09:18:56.888Z,9.70
2022-09-28T09:22:03.258Z,9.66
2022-09-28T09:24:52.254Z,9.57
2022-09-28T09:28:08.766Z,9.49
2022-09-28T09:31:09.405Z,9.42
2022-09-28T09:34:16.798Z,9.39
2022-09-28T09:37:27.663Z,9.37
2022-09-28T09:41:01.287Z,9.35
2022-09-28T09:44:50.518Z,9.10
2022-09-28T09:48:00.872Z,9.00
2022-09-28T09:50:54.521Z,9.00
2022-09-28T09:53:48.920Z,9.05
2022-09-28T09:56:44.183Z,8.91
2022-09-28T09:59:42.546Z,8.84
2022-09-28T10:02:54.718Z,8.94
2022-09-28T10:06:00.048Z,8.94
2022-09-28T10:08:53.976Z,8.96
2022-09-28T10:11:45.508Z,8.99
2022-09-28T10:14:35.847Z,8.98
2022-09-28T10:17:27.832Z,8.98
2022-09-28T10:20:53.045Z,9.02
2022-09-28T10:23:56.907Z,9.00
2022-09-28T10:26:51.494Z,9.08
2022-09-28T10:29:51.096Z,8.86
2022-09-28T10:32:41.565Z,8.84
2022-09-28T10:35:32.395Z,8.90
2022-09-28T10:38:25.191Z,8.94
2022-09-28T10:41:29.663Z,9.04
2022-09-28T10:44:23.252Z,8.96
2022-09-28T10:47:23.062Z,9.04
2022-09-28T10:50:22.457Z,9.01
2022-09-28T10:53:20.674Z,9.07
2022-09-28T10:56:37.077Z,9.26
2022-09-28T10:59:42.640Z,9.22
2022-09-28T11:02:44.620Z,9.47
2022-09-28T11:05:40.048Z,9.70
2022-09-28T11:08:31.061Z,9.83
2022-09-28T11:11:22.153Z,9.86
2022-09-28T11:14:27.676Z,9.84
2022-09-28T11:17:20.135Z,9.89
2022-09-28T11:20:33.197Z,9.96
2022-09-28T11:23:28.057Z,9.88
2022-09-28T11:26:18.942Z,9.66
2022-09-28T11:29:08.745Z,9.60
2022-09-28T11:32:15.538Z,9.76
2022-09-28T11:35:27.065Z,9.81
2022-09-28T11:38:33.698Z,9.59
2022-09-28T11:41:54.183Z,9.63
2022-09-28T11:44:46.375Z,9.67
2022-09-28T11:48:04.355Z,9.77
2022-09-28T11:50:58.005Z,9.90
2022-09-28T11:53:51.261Z,10.08
2022-09-28T11:56:43.127Z,10.12
2022-09-28T11:59:34.537Z,10.05
2022-09-28T12:02:27.076Z,10.07
2022-09-28T12:05:25.793Z,10.04
2022-09-28T12:08:19.034Z,10.04
2022-09-28T12:11:34.321Z,10.19
2022-09-28T12:14:41.901Z,10.16
2022-09-28T12:17:36.845Z,10.28
2022-09-28T12:20:28.395Z,10.21
2022-09-28T12:23:19.558Z,10.36
2022-09-28T12:26:17.590Z,10.49
2022-09-28T12:29:11.677Z,10.79
2022-09-28T12:32:06.491Z,10.89
2022-09-28T12:34:54.040Z,10.98
2022-09-28T12:38:02.230Z,11.07
2022-09-28T12:40:58.646Z,11.18
2022-09-28T12:44:04.119Z,11.19
2022-09-28T12:47:09.742Z,11.31
2022-09-28T12:53:38.763Z,11.14
2022-09-28T12:56:35.076Z,11.23
2022-09-28T12:59:30.194Z,11.28
2022-09-28T13:02:53.179Z,11.41
2022-09-28T13:06:08.533Z,11.39
2022-09-28T13:09:16.893Z,11.38
2022-09-28T13:12:15.681Z,11.34
2022-09-28T13:15:32.879Z,11.03
2022-09-28T13:18:27.431Z,11.07
2022-09-28T13:21:26.450Z,10.84
2022-09-28T13:24:32.278Z,10.91
2022-09-28T13:27:29.870Z,10.79
2022-09-28T13:30:19.668Z,10.56
2022-09-28T13:33:09.443Z,10.44
2022-09-28T13:35:57.929Z,10.48
2022-09-28T13:38:53.107Z,10.50
2022-09-28T13:41:50.845Z,10.63
2022-09-28T13:45:10.319Z,10.76
2022-09-28T13:48:11.881Z,10.81
2022-09-28T13:51:10.527Z,10.89
2022-09-28T13:54:15.821Z,10.83
2022-09-28T13:57:19.854Z,10.74
2022-09-28T14:00:22.300Z,11.00
2022-09-28T14:03:23.528Z,10.97
2022-09-28T14:06:23.769Z,11.23
2022-09-28T14:09:28.297Z,11.39
2022-09-28T14:12:46.894Z,11.13
2022-09-28T14:15:47.848Z,11.09
2022-09-28T14:18:35.821Z,11.02
2022-09-28T14:21:59.997Z,11.18
2022-09-28T14:25:13.215Z,11.23
2022-09-28T14:28:10.073Z,11.10
2022-09-28T14:30:59.197Z,11.06
2022-09-28T14:33:57.004Z,11.08
2022-09-28T14:37:07.677Z,11.05
2022-09-28T14:40:13.407Z,11.17
2022-09-28T14:43:38.599Z,11.20
2022-09-28T14:46:32.092Z,11.33
2022-09-28T14:49:51.462Z,11.47
2022-09-28T14:52:42.043Z,11.66
2022-09-28T14:55:35.220Z,11.71
2022-09-28T14:58:26.706Z,11.56
2022-09-28T15:01:21.328Z,11.44
2022-09-28T15:04:13.860Z,11.41
2022-09-28T15:07:01.954Z,11.36
2022-09-28T15:09:51.331Z,11.29
2022-09-28T15:12:39.010Z,11.20
2022-09-28T15:15:31.626Z,11.17
2022-09-28T15:19:10.682Z,11.17
2022-09-28T15:21:57.785Z,11.19
2022-09-28T15:24:58.696Z,11.14
2022-09-28T15:27:52.873Z,11.23
2022-09-28T15:30:40.754Z,11.25
2022-09-28T15:33:47.636Z,11.33
2022-09-28T15:36:40.297Z,11.11
2022-09-28T15:39:34.253Z,10.98
2022-09-28T15:42:22.965Z,10.86
2022-09-28T15:45:27.611Z,10.80
2022-09-28T15:48:21.326Z,10.76
2022-09-28T15:51:11.702Z,10.61
2022-09-28T15:54:04.207Z,10.77
2022-09-28T15:56:54.865Z,10.77
2022-09-28T15:59:44.096Z,10.73
2022-09-28T16:02:31.344Z,10.85
2022-09-28T16:05:36.062Z,11.02
2022-09-28T16:08:37.635Z,11.25
2022-09-28T16:11:31.586Z,11.29
2022-09-28T16:14:23.549Z,11.14
2022-09-28T16:17:18.667Z,11.17
2022-09-28T16:20:22.493Z,11.16
2022-09-28T16:23:19.162Z,11.38
2022-09-28T16:26:09.168Z,11.57
2022-09-28T16:28:57.845Z,11.21
2022-09-28T16:31:52.730Z,11.09
2022-09-28T16:34:40.106Z,11.11
2022-09-28T16:37:32.576Z,11.26
2022-09-28T16:40:20.273Z,11.07
2022-09-28T16:43:10.145Z,11.09
2022-09-28T16:46:02.081Z,11.08
2022-09-28T16:48:52.570Z,11.00
2022-09-28T16:51:41.249Z,11.10
2022-09-28T16:54:48.486Z,11.12
2022-09-28T16:57:39.305Z,10.89
2022-09-28T17:00:27.762Z,10.88
2022-09-28T17:03:18.916Z,10.91
2022-09-28T17:06:07.648Z,10.71
2022-09-28T17:08:58.373Z,10.56
2022-09-28T17:11:47.781Z,10.42
2022-09-28T17:14:36.259Z,10.25
2022-09-28T17:17:24.118Z,10.20
2022-09-28T17:20:22.805Z,10.18
2022-09-28T17:23:10.468Z,10.13
2022-09-28T17:25:59.126Z,9.98
2022-09-28T17:28:47.292Z,9.85
2022-09-28T17:31:34.687Z,9.74
2022-09-28T17:34:22.239Z,9.67
2022-09-28T17:37:14.749Z,9.54
2022-09-28T17:40:02.292Z,9.46
2022-09-28T17:42:50.040Z,9.41
2022-09-28T17:45:41.080Z,9.33
2022-09-28T17:48:28.568Z,9.26
2022-09-28T17:51:15.968Z,9.21
2022-09-28T17:54:06.225Z,9.10
2022-09-28T17:56:53.679Z,9.04
2022-09-28T17:59:40.677Z,8.99
2022-09-28T18:02:28.279Z,8.92
2022-09-28T18:05:16.137Z,8.82
2022-09-28T18:08:04.686Z,8.74
2022-09-28T18:10:54.605Z,8.64
2022-09-28T18:13:43.539Z,8.54
2022-09-28T18:16:30.713Z,8.49
2022-09-28T18:19:18.436Z,8.46
2022-09-28T18:22:12.003Z,8.38
2022-09-28T18:25:05.277Z,8.34
2022-09-28T18:28:00.530Z,8.32
2022-09-28T18:30:51.670Z,8.29
2022-09-28T18:33:56.921Z,8.37
2022-09-28T18:36:45.184Z,8.38
2022-09-28T18:39:32.903Z,8.29
2022-09-28T18:42:20.637Z,8.20
2022-09-28T18:45:12.043Z,8.10
2022-09-28T18:47:59.743Z,8.02
2022-09-28T18:50:47.555Z,7.89
2022-09-28T18:53:36.355Z,7.89
2022-09-28T18:56:24.068Z,8.00
2022-09-28T18:59:12.595Z,8.00
2022-09-28T19:02:02.052Z,8.04
2022-09-28T19:04:49.663Z,8.08
2022-09-28T19:07:37.454Z,8.18
2022-09-28T19:10:24.754Z,8.21
2022-09-28T19:13:12.322Z,8.32
2022-09-28T19:16:00.575Z,8.31
2022-09-28T19:18:50.200Z,8.21
2022-09-28T19:21:37.876Z,8.05
2022-09-28T19:24:25.706Z,8.00
2022-09-28T19:27:13.338Z,8.03
2022-09-28T19:30:01.102Z,8.08
2022-09-28T19:32:48.755Z,8.33
2022-09-28T19:35:37.903Z,8.33
2022-09-28T19:38:25.205Z,8.37
2022-09-28T19:41:37.826Z,8.56
2022-09-28T19:44:30.349Z,8.59
2022-09-28T19:47:18.899Z,8.42
2022-09-28T19:50:07.707Z,8.23
2022-09-28T19:53:01.921Z,8.24
2022-09-28T19:55:52.915Z,8.32
2022-09-28T19:58:40.809Z,8.75
2022-09-28T20:01:28.534Z,8.59
2022-09-28T20:04:16.690Z,8.57
2022-09-28T20:07:05.260Z,8.54
2022-09-28T20:09:54.301Z,8.55
2022-09-28T20:12:42.503Z,8.37
2022-09-28T20:15:30.136Z,8.15
2022-09-28T20:18:17.753Z,8.04
2022-09-28T20:21:06.227Z,7.91
2022-09-28T20:23:56.367Z,8.00
2022-09-28T20:26:46.095Z,8.03
2022-09-28T20:29:33.358Z,8.00
2022-09-28T20:32:21.447Z,7.98
2022-09-28T20:35:09.755Z,7.98
2022-09-28T20:37:57.699Z,7.97
2022-09-28T20:40:44.913Z,7.93
2022-09-28T20:43:34.975Z,7.93
2022-09-28T20:46:22.995Z,7.89
2022-09-28T20:49:10.634Z,7.90
2022-09-28T20:51:58.418Z,7.89
2022-09-28T20:54:46.252Z,7.94
2022-09-28T20:57:33.915Z,7.86
2022-09-28T21:00:22.625Z,7.82
2022-09-28T21:03:10.101Z,7.77
2022-09-28T21:05:58.595Z,7.79
2022-09-28T21:08:47.196Z,7.74
2022-09-28T21:11:35.705Z,7.70
2022-09-28T21:14:24.179Z,7.67
2022-09-28T21:17:12.864Z,7.64
2022-09-28T21:20:00.262Z,7.63
2022-09-28T21:22:48.134Z,7.61
2022-09-28T21:25:35.785Z,7.56
2022-09-28T21:28:23.584Z,7.58
2022-09-28T21:31:13.515Z,7.80
2022-09-28T21:34:04.605Z,7.98
2022-09-28T21:36:52.637Z,7.96
2022-09-28T21:39:39.859Z,7.75
2022-09-28T21:42:27.269Z,7.46
2022-09-28T21:45:15.097Z,7.48
2022-09-28T21:48:02.885Z,7.35
2022-09-28T21:51:04.218Z,7.21
2022-09-28T21:53:51.280Z,7.09
2022-09-28T21:56:38.773Z,7.01
2022-09-28T21:59:26.405Z,6.94
2022-09-28T22:02:13.971Z,6.92
2022-09-28T22:05:01.791Z,6.84
2022-09-28T22:07:50.464Z,6.80
2022-09-28T22:10:38.068Z,6.82
2022-09-28T22:13:25.179Z,6.91
2022-09-28T22:16:13.878Z,6.84
2022-09-28T22:19:01.788Z,6.89
2022-09-28T22:21:48.529Z,6.67
2022-09-28T22:24:37.868Z,6.80
2022-09-28T22:27:25.431Z,6.63
2022-09-28T22:30:13.806Z,6.71
2022-09-28T22:33:00.970Z,6.65
2022-09-28T22:35:49.356Z,6.63
2022-09-28T22:38:37.503Z,6.57
2022-09-28T22:41:26.747Z,6.49
2022-09-28T22:44:14.527Z,6.48
2022-09-28T22:47:02.061Z,6.38
2022-09-28T22:49:49.765Z,6.44
2022-09-28T22:52:37.430Z,6.50
2022-09-28T22:55:24.951Z,6.54
2022-09-28T22:58:13.724Z,6.53
2022-09-28T23:01:07.141Z,6.48
2022-09-28T23:03:55.921Z,6.48
2022-09-28T23:06:44.736Z,6.48
2022-09-28T23:09:32.082Z,6.50
2022-09-28T23:12:19.428Z,6.53
2022-09-28T23:15:10.080Z,6.41
2022-09-28T23:17:57.470Z,6.40
2022-09-28T23:20:44.769Z,6.44
2022-09-28T23:23:32.202Z,6.53
2022-09-28T23:26:21.646Z,6.63
2022-09-28T23:29:12.767Z,6.66
2022-09-28T23:32:02.063Z,6.86
2022-09-28T23:34:49.305Z,6.94
2022-09-28T23:37:36.701Z,7.05
2022-09-28T23:40:24.219Z,7.12
2022-09-28T23:43:11.461Z,7.24
2022-09-28T23:45:59.099Z,7.21
2022-09-28T23:48:48.504Z,7.24
2022-09-28T23:51:35.872Z,7.23
2022-09-28T23:54:23.548Z,7.29
2022-09-28T23:57:11.049Z,7.31
2022-09-28T23:59:58.748Z,7.34
